createdAt,value
2023-03-26T00:01:14.025Z,92.35
2023-03-26T00:03:41.505Z,92.60
2023-03-26T00:06:15.993Z,92.09
2023-03-26T00:08:43.732Z,93.18
2023-03-26T00:11:11.924Z,93.45
2023-03-26T00:13:39.181Z,93.30
2023-03-26T00:16:06.361Z,93.17
2023-03-26T00:18:34.894Z,93.40
2023-03-26T00:21:05.061Z,93.26
2023-03-26T00:23:33.899Z,93.81
2023-03-26T00:26:00.856Z,93.15
2023-03-26T00:28:27.295Z,93.96
2023-03-26T00:31:05.156Z,94.02
2023-03-26T00:33:32.136Z,94.20
2023-03-26T00:36:03.195Z,94.59
2023-03-26T00:38:31.013Z,93.64
2023-03-26T00:41:05.877Z,93.73
2023-03-26T00:43:36.181Z,94.20
2023-03-26T00:46:03.083Z,94.38
2023-03-26T00:48:42.231Z,94.53
2023-03-26T00:51:15.218Z,93.93
2023-03-26T00:53:42.527Z,94.21
2023-03-26T00:56:10.084Z,94.23
2023-03-26T00:58:37.213Z,94.60
2023-03-26T01:01:08.567Z,94.32
2023-03-26T01:03:38.611Z,94.23
2023-03-26T01:06:14.057Z,94.36
2023-03-26T01:09:04.282Z,94.19
2023-03-26T01:11:33.710Z,95.20
2023-03-26T01:14:01.558Z,94.90
2023-03-26T01:16:39.253Z,94.56
2023-03-26T01:19:16.526Z,95.09
2023-03-26T01:21:43.970Z,94.90
2023-03-26T01:24:10.541Z,94.90
2023-03-26T01:26:52.715Z,95.21
2023-03-26T01:29:29.301Z,95.20
2023-03-26T01:32:09.537Z,95.80
2023-03-26T01:35:06.086Z,95.74
2023-03-26T01:37:52.393Z,95.15
2023-03-26T01:40:50.432Z,95.69
2023-03-26T01:43:47.477Z,95.50
2023-03-26T01:46:16.106Z,96.38
2023-03-26T01:48:44.891Z,95.46
2023-03-26T01:51:13.301Z,95.20
2023-03-26T01:53:46.818Z,95.34
2023-03-26T01:56:35.439Z,95.67
2023-03-26T01:59:13.710Z,95.89
2023-03-26T02:01:54.713Z,95.49
2023-03-26T02:04:27.458Z,95.64
2023-03-26T02:07:05.599Z,95.97
2023-03-26T02:09:39.857Z,95.60
2023-03-26T02:12:07.020Z,95.77
2023-03-26T02:14:34.312Z,96.26
2023-03-26T02:17:00.754Z,96.06
2023-03-26T02:19:27.387Z,95.89
2023-03-26T02:21:59.655Z,95.70
2023-03-26T02:24:25.997Z,95.94
2023-03-26T02:26:52.318Z,95.49
2023-03-26T02:29:20.448Z,96.62
2023-03-26T02:31:48.615Z,95.87
2023-03-26T02:34:16.162Z,95.56
2023-03-26T02:36:45.639Z,95.76
2023-03-26T02:39:14.252Z,95.31
2023-03-26T02:41:40.924Z,96.22
2023-03-26T02:44:07.445Z,96.17
2023-03-26T02:46:33.960Z,95.99
2023-03-26T02:49:00.568Z,95.60
2023-03-26T02:51:27.360Z,95.93
2023-03-26T02:53:54.754Z,96.39
2023-03-26T02:56:21.594Z,95.65
2023-03-26T02:58:48.385Z,95.62
2023-03-26T03:01:18.305Z,95.02
2023-03-26T03:03:47.482Z,95.65
2023-03-26T03:06:17.032Z,96.23
2023-03-26T03:08:46.108Z,95.69
2023-03-26T03:11:18.994Z,96.41
2023-03-26T03:13:46.080Z,96.23
2023-03-26T03:16:12.575Z,95.69
2023-03-26T03:18:39.607Z,96.24
2023-03-26T03:21:06.254Z,96.22
2023-03-26T03:23:32.824Z,96.26
2023-03-26T03:25:59.445Z,95.77
2023-03-26T03:28:26.531Z,96.56
2023-03-26T03:30:53.215Z,96.24
2023-03-26T03:33:20.700Z,96.26
2023-03-26T03:35:49.474Z,96.13
2023-03-26T03:38:19.236Z,95.98
2023-03-26T03:40:45.778Z,96.32
2023-03-26T03:43:12.189Z,96.49
2023-03-26T03:45:38.604Z,96.38
2023-03-26T03:48:05.418Z,95.90
2023-03-26T03:50:34.316Z,95.56
2023-03-26T03:53:02.052Z,95.58
2023-03-26T03:55:30.118Z,95.80
2023-03-26T03:57:58.495Z,95.97
2023-03-26T04:00:24.933Z,96.22
2023-03-26T04:02:54.235Z,96.17
2023-03-26T04:05:21.430Z,95.47
2023-03-26T04:07:47.872Z,95.66
2023-03-26T04:10:15.291Z,95.38
2023-03-26T04:12:41.685Z,95.57
2023-03-26T04:15:08.413Z,95.51
2023-03-26T04:17:42.201Z,95.42
2023-03-26T04:20:14.738Z,95.68
2023-03-26T04:22:44.099Z,95.91
2023-03-26T04:25:12.546Z,95.93
2023-03-26T04:27:41.868Z,95.93
2023-03-26T04:30:12.540Z,95.63
2023-03-26T04:32:40.344Z,95.67
2023-03-26T04:35:07.046Z,95.80
2023-03-26T04:37:36.570Z,95.36
2023-03-26T04:40:08.450Z,95.93
2023-03-26T04:42:37.636Z,95.87
2023-03-26T04:45:07.380Z,95.80
2023-03-26T04:47:37.036Z,95.67
2023-03-26T04:50:05.236Z,95.13
2023-03-26T04:52:31.582Z,95.95
2023-03-26T04:54:58.161Z,95.84
2023-03-26T04:57:32.530Z,95.73
2023-03-26T04:59:58.927Z,95.89
2023-03-26T05:02:25.994Z,95.14
2023-03-26T05:04:52.480Z,95.00
2023-03-26T05:07:22.430Z,95.05
2023-03-26T05:09:48.852Z,94.79
2023-03-26T05:12:16.461Z,95.00
2023-03-26T05:14:42.796Z,95.24
2023-03-26T05:17:14.948Z,94.74
2023-03-26T05:19:41.721Z,95.20
2023-03-26T05:22:08.146Z,95.45
2023-03-26T05:24:34.525Z,95.44
2023-03-26T05:27:01.133Z,95.61
2023-03-26T05:29:27.536Z,95.52
2023-03-26T05:31:53.861Z,95.11
2023-03-26T05:34:24.114Z,95.11
2023-03-26T05:36:50.623Z,95.13
2023-03-26T05:39:17.263Z,95.48
2023-03-26T05:41:43.661Z,95.84
2023-03-26T05:44:10.211Z,96.02
2023-03-26T05:46:36.625Z,96.18
2023-03-26T05:49:03.371Z,96.13
2023-03-26T05:51:29.804Z,95.83
2023-03-26T05:53:56.118Z,95.17
2023-03-26T05:56:22.537Z,95.56
2023-03-26T05:58:50.091Z,95.15
2023-03-26T06:01:18.087Z,95.24
2023-03-26T06:03:45.692Z,95.78
2023-03-26T06:06:15.480Z,95.17
2023-03-26T06:09:01.577Z,95.72
2023-03-26T06:11:30.409Z,95.38
2023-03-26T06:13:56.772Z,95.80
2023-03-26T06:16:27.173Z,95.85
2023-03-26T06:18:56.682Z,95.19
2023-03-26T06:21:24.215Z,95.60
2023-03-26T06:23:51.682Z,94.92
2023-03-26T06:26:18.132Z,95.18
2023-03-26T06:28:44.642Z,95.13
2023-03-26T06:31:11.841Z,95.61
2023-03-26T06:33:38.559Z,94.92
2023-03-26T06:36:05.674Z,95.93
2023-03-26T06:38:32.139Z,95.48
2023-03-26T06:41:06.047Z,95.64
2023-03-26T06:43:36.178Z,95.00
2023-03-26T06:46:03.492Z,94.87
2023-03-26T06:48:30.131Z,94.66
2023-03-26T06:50:57.592Z,94.41
2023-03-26T06:53:23.988Z,94.52
2023-03-26T06:55:50.405Z,94.81
2023-03-26T06:58:17.036Z,94.34
2023-03-26T07:00:43.472Z,94.64
2023-03-26T07:03:11.321Z,94.19
2023-03-26T07:05:38.812Z,94.42
2023-03-26T07:08:05.783Z,94.56
2023-03-26T07:10:32.791Z,95.34
2023-03-26T07:12:59.170Z,95.01
2023-03-26T07:15:26.889Z,95.41
2023-03-26T07:17:53.252Z,95.03
2023-03-26T07:20:19.755Z,94.74
2023-03-26T07:22:46.388Z,94.45
2023-03-26T07:25:14.245Z,94.89
2023-03-26T07:27:57.800Z,94.88
2023-03-26T07:30:45.777Z,94.14
2023-03-26T07:33:24.336Z,93.81
2023-03-26T07:36:07.974Z,94.76
2023-03-26T07:38:47.165Z,94.49
2023-03-26T07:41:48.639Z,93.78
2023-03-26T07:44:18.020Z,94.06
2023-03-26T07:46:47.803Z,94.08
2023-03-26T07:49:14.911Z,92.94
2023-03-26T07:51:41.580Z,93.13
2023-03-26T07:54:10.752Z,92.35
2023-03-26T07:56:42.797Z,93.08
2023-03-26T07:59:09.161Z,92.48
2023-03-26T08:02:02.776Z,92.50
2023-03-26T08:04:47.788Z,92.17
2023-03-26T08:07:37.617Z,92.07
2023-03-26T08:10:15.872Z,92.44
2023-03-26T08:12:48.165Z,92.36
2023-03-26T08:15:42.047Z,92.61
2023-03-26T08:18:28.349Z,92.85
2023-03-26T08:21:01.317Z,91.88
2023-03-26T08:23:35.706Z,91.59
2023-03-26T08:26:32.206Z,92.00
2023-03-26T08:29:10.402Z,91.82
2023-03-26T08:31:41.648Z,91.68
2023-03-26T08:34:12.359Z,91.80
2023-03-26T08:36:39.417Z,92.09
2023-03-26T08:39:06.162Z,93.19
2023-03-26T08:41:44.602Z,92.34
2023-03-26T08:45:08.211Z,92.55
2023-03-26T08:47:55.461Z,92.61
2023-03-26T08:50:30.831Z,92.58
2023-03-26T08:53:36.422Z,92.91
2023-03-26T08:56:19.366Z,92.57
2023-03-26T08:59:19.619Z,92.19
2023-03-26T09:02:10.698Z,92.64
2023-03-26T09:04:52.104Z,92.42
2023-03-26T09:07:34.906Z,92.30
2023-03-26T09:10:25.710Z,92.26
2023-03-26T09:13:28.223Z,92.49
2023-03-26T09:16:38.287Z,92.48
2023-03-26T09:19:35.509Z,92.44
2023-03-26T09:22:42.357Z,92.55
2023-03-26T09:25:20.996Z,91.62
2023-03-26T09:28:28.233Z,91.61
2023-03-26T09:31:39.663Z,92.15
2023-03-26T09:34:30.322Z,92.39
2023-03-26T09:37:13.354Z,91.67
2023-03-26T09:40:01.555Z,92.48
2023-03-26T09:42:46.206Z,91.78
2023-03-26T09:45:31.870Z,91.77
2023-03-26T09:48:18.942Z,92.03
2023-03-26T09:51:00.741Z,91.38
2023-03-26T09:53:51.444Z,91.63
2023-03-26T09:56:42.732Z,91.56
2023-03-26T09:59:33.902Z,91.80
2023-03-26T10:02:46.485Z,91.77
2023-03-26T10:05:42.462Z,91.54
2023-03-26T10:08:33.120Z,91.21
2023-03-26T10:11:10.063Z,92.05
2023-03-26T10:13:58.209Z,91.32
2023-03-26T10:16:38.790Z,91.16
2023-03-26T10:19:26.999Z,91.53
2023-03-26T10:22:24.367Z,90.92
2023-03-26T10:25:28.614Z,91.37
2023-03-26T10:28:14.417Z,91.41
2023-03-26T10:30:47.220Z,91.45
2023-03-26T10:33:34.094Z,91.17
2023-03-26T10:36:09.724Z,91.17
2023-03-26T10:38:58.386Z,92.38
2023-03-26T10:41:38.042Z,91.78
2023-03-26T10:44:21.902Z,92.21
2023-03-26T10:47:08.323Z,91.78
2023-03-26T10:50:02.131Z,91.78
2023-03-26T10:52:38.975Z,91.93
2023-03-26T10:55:18.940Z,92.26
2023-03-26T10:57:53.752Z,91.84
2023-03-26T11:00:26.065Z,92.12
2023-03-26T11:03:17.320Z,91.41
2023-03-26T11:05:58.912Z,90.80
2023-03-26T11:08:49.568Z,90.06
2023-03-26T11:11:42.200Z,90.84
2023-03-26T11:14:33.799Z,90.11
2023-03-26T11:17:00.973Z,90.61
2023-03-26T11:19:40.904Z,90.13
2023-03-26T11:22:31.698Z,88.91
2023-03-26T11:25:29.065Z,88.97
2023-03-26T11:28:17.181Z,88.26
2023-03-26T11:31:02.263Z,88.25
2023-03-26T11:33:45.363Z,88.49
2023-03-26T11:36:17.594Z,88.01
2023-03-26T11:38:47.444Z,88.19
2023-03-26T11:41:24.337Z,87.49
2023-03-26T11:43:56.310Z,88.53
2023-03-26T11:46:24.870Z,88.45
2023-03-26T11:49:03.355Z,88.18
2023-03-26T11:51:33.183Z,89.18
2023-03-26T11:54:05.011Z,89.77
2023-03-26T11:56:41.816Z,88.98
2023-03-26T11:59:49.491Z,89.70
2023-03-26T12:02:38.044Z,89.64
2023-03-26T12:05:40.903Z,88.37
2023-03-26T12:08:20.019Z,88.34
2023-03-26T12:10:58.277Z,88.61
2023-03-26T12:13:39.925Z,87.73
2023-03-26T12:16:18.948Z,87.35
2023-03-26T12:18:47.457Z,86.02
2023-03-26T12:21:15.778Z,86.50
2023-03-26T12:23:57.053Z,85.57
2023-03-26T12:26:34.715Z,84.69
2023-03-26T12:29:16.458Z,83.64
2023-03-26T12:31:51.789Z,82.98
2023-03-26T12:34:24.268Z,81.96
2023-03-26T12:36:56.662Z,80.87
2023-03-26T12:40:07.011Z,80.58
2023-03-26T12:44:44.049Z,80.69
2023-03-26T12:45:16.440Z,79.87
2023-03-26T12:47:57.106Z,79.19
2023-03-26T12:50:56.972Z,79.88
2023-03-26T12:53:26.610Z,79.30
2023-03-26T12:56:19.860Z,78.64
2023-03-26T12:59:12.164Z,79.26
2023-03-26T13:02:16.126Z,78.81
2023-03-26T13:04:49.226Z,77.22
2023-03-26T13:07:30.477Z,77.88
2023-03-26T13:10:24.786Z,76.90
2023-03-26T13:13:08.193Z,75.50
2023-03-26T13:15:41.062Z,75.50
2023-03-26T13:18:44.681Z,76.68
2023-03-26T13:21:13.975Z,74.32
2023-03-26T13:23:56.993Z,74.45
2023-03-26T13:26:46.351Z,73.98
2023-03-26T13:29:46.786Z,75.25
2023-03-26T13:32:33.005Z,73.91
2023-03-26T13:35:20.948Z,74.53
2023-03-26T13:38:06.039Z,76.72
2023-03-26T13:40:39.468Z,74.27
2023-03-26T13:43:43.350Z,74.03
2023-03-26T13:46:32.096Z,72.75
2023-03-26T13:49:13.050Z,72.46
2023-03-26T13:51:44.744Z,72.21
2023-03-26T13:54:23.367Z,72.63
2023-03-26T13:56:56.042Z,72.69
2023-03-26T13:59:58.764Z,72.01
2023-03-26T14:02:38.830Z,72.00
2023-03-26T14:05:23.360Z,71.90
2023-03-26T14:07:57.365Z,72.51
2023-03-26T14:10:27.936Z,72.45
2023-03-26T14:12:59.856Z,72.10
2023-03-26T14:15:26.213Z,72.55
2023-03-26T14:18:07.125Z,71.67
2023-03-26T14:20:51.427Z,72.19
2023-03-26T14:23:29.854Z,72.79
2023-03-26T14:26:33.988Z,72.41
2023-03-26T14:29:12.621Z,72.45
2023-03-26T14:31:51.585Z,73.31
2023-03-26T14:34:30.936Z,72.57
2023-03-26T14:37:27.954Z,72.65
2023-03-26T14:40:00.599Z,70.85
2023-03-26T14:42:48.735Z,70.67
2023-03-26T14:45:29.134Z,70.37
2023-03-26T14:48:22.888Z,70.67
2023-03-26T14:51:08.890Z,71.13
2023-03-26T14:53:40.273Z,69.76
2023-03-26T14:56:32.132Z,70.20
2023-03-26T14:59:17.198Z,71.26
2023-03-26T15:02:31.966Z,71.50
2023-03-26T15:05:04.050Z,71.36
2023-03-26T15:07:40.930Z,71.29
2023-03-26T15:10:26.201Z,70.88
2023-03-26T15:13:26.482Z,70.66
2023-03-26T15:16:26.225Z,71.01
2023-03-26T15:18:57.319Z,71.25
2023-03-26T15:22:10.081Z,70.88
2023-03-26T15:25:06.759Z,69.74
2023-03-26T15:27:39.086Z,67.48
2023-03-26T15:30:33.376Z,67.69
2023-03-26T15:33:34.902Z,67.71
2023-03-26T15:36:35.436Z,67.70
2023-03-26T15:39:44.227Z,67.57
2023-03-26T15:42:47.935Z,67.53
2023-03-26T15:45:33.182Z,68.96
2023-03-26T15:48:12.314Z,68.47
2023-03-26T15:51:08.883Z,68.53
2023-03-26T15:53:56.722Z,68.35
2023-03-26T15:56:54.841Z,69.26
2023-03-26T15:59:37.115Z,68.57
2023-03-26T16:02:07.367Z,68.34
2023-03-26T16:04:53.983Z,69.07
2023-03-26T16:07:29.413Z,68.55
2023-03-26T16:10:16.309Z,68.09
2023-03-26T16:13:22.731Z,68.93
2023-03-26T16:16:04.244Z,66.93
2023-03-26T16:18:41.141Z,66.96
2023-03-26T16:21:36.589Z,68.19
2023-03-26T16:24:03.080Z,67.64
2023-03-26T16:26:54.939Z,66.39
2023-03-26T16:29:24.660Z,67.34
2023-03-26T16:32:09.616Z,66.26
2023-03-26T16:34:48.075Z,66.36
2023-03-26T16:37:39.968Z,67.09
2023-03-26T16:40:27.824Z,68.05
2023-03-26T16:43:09.393Z,66.66
2023-03-26T16:45:58.854Z,67.35
2023-03-26T16:48:56.344Z,65.74
2023-03-26T16:51:50.674Z,65.66
2023-03-26T16:54:23.613Z,65.47
2023-03-26T16:57:01.194Z,66.17
2023-03-26T17:00:05.457Z,66.36
2023-03-26T17:03:13.061Z,65.39
2023-03-26T17:05:56.472Z,65.33
2023-03-26T17:08:36.203Z,65.52
2023-03-26T17:11:27.140Z,66.10
2023-03-26T17:14:07.803Z,65.46
2023-03-26T17:16:35.921Z,64.59
2023-03-26T17:19:22.392Z,64.10
2023-03-26T17:22:36.957Z,64.21
2023-03-26T17:25:31.348Z,64.83
2023-03-26T17:28:16.153Z,64.05
2023-03-26T17:31:07.602Z,65.16
2023-03-26T17:33:36.847Z,65.64
2023-03-26T17:36:12.589Z,65.85
2023-03-26T17:38:39.048Z,66.23
2023-03-26T17:41:14.776Z,66.72
2023-03-26T17:43:46.820Z,65.50
2023-03-26T17:46:41.877Z,65.63
2023-03-26T17:49:26.944Z,65.67
2023-03-26T17:52:25.744Z,64.94
2023-03-26T17:54:55.735Z,65.04
2023-03-26T17:57:42.769Z,64.57
2023-03-26T18:00:19.440Z,64.79
2023-03-26T18:03:00.396Z,65.44
2023-03-26T18:05:29.720Z,64.57
2023-03-26T18:08:23.734Z,64.53
2023-03-26T18:10:59.105Z,65.21
2023-03-26T18:13:37.568Z,65.24
2023-03-26T18:16:26.078Z,65.98
2023-03-26T18:19:00.586Z,66.54
2023-03-26T18:21:39.185Z,65.95
2023-03-26T18:24:08.667Z,64.83
2023-03-26T18:26:42.519Z,65.01
2023-03-26T18:29:19.782Z,65.47
2023-03-26T18:31:49.271Z,65.45
2023-03-26T18:34:20.367Z,65.94
2023-03-26T18:36:57.501Z,65.62
2023-03-26T18:39:23.897Z,65.79
2023-03-26T18:41:50.321Z,65.71
2023-03-26T18:44:18.881Z,66.93
2023-03-26T18:46:46.376Z,66.85
2023-03-26T18:49:15.360Z,67.20
2023-03-26T18:51:56.031Z,67.12
2023-03-26T18:54:24.125Z,66.96
2023-03-26T18:56:52.105Z,67.28
2023-03-26T18:59:35.270Z,67.22
2023-03-26T19:02:05.709Z,67.75
2023-03-26T19:04:33.910Z,68.33
2023-03-26T19:07:01.551Z,68.70
2023-03-26T19:09:32.460Z,69.52
2023-03-26T19:12:09.178Z,70.06
2023-03-26T19:14:54.418Z,70.40
2023-03-26T19:17:22.094Z,70.56
2023-03-26T19:19:50.608Z,70.92
2023-03-26T19:22:18.119Z,71.03
2023-03-26T19:24:44.885Z,70.88
2023-03-26T19:27:11.982Z,70.89
2023-03-26T19:29:38.476Z,70.95
2023-03-26T19:32:15.703Z,70.90
2023-03-26T19:34:44.759Z,71.52
2023-03-26T19:37:18.745Z,71.30
2023-03-26T19:39:49.084Z,71.36
2023-03-26T19:42:42.995Z,71.32
2023-03-26T19:45:18.103Z,71.46
2023-03-26T19:47:50.109Z,70.66
2023-03-26T19:50:29.821Z,70.73
2023-03-26T19:53:16.061Z,70.62
2023-03-26T19:55:53.444Z,70.93
2023-03-26T19:58:19.878Z,70.72
2023-03-26T20:00:46.248Z,70.50
2023-03-26T20:03:13.079Z,70.99
2023-03-26T20:05:39.613Z,70.66
2023-03-26T20:08:14.602Z,70.53
2023-03-26T20:10:44.106Z,70.14
2023-03-26T20:13:17.248Z,70.78
2023-03-26T20:16:05.419Z,70.42
2023-03-26T20:18:34.693Z,70.14
2023-03-26T20:21:01.158Z,69.43
2023-03-26T20:23:28.846Z,70.09
2023-03-26T20:25:55.613Z,69.87
2023-03-26T20:28:22.272Z,69.59
2023-03-26T20:30:50.708Z,69.92
2023-03-26T20:33:25.586Z,69.91
2023-03-26T20:35:56.933Z,69.90
2023-03-26T20:38:38.995Z,70.53
2023-03-26T20:41:12.383Z,70.48
2023-03-26T20:43:38.872Z,70.88
2023-03-26T20:46:05.519Z,70.80
2023-03-26T20:48:36.110Z,70.87
2023-03-26T20:51:03.031Z,71.43
2023-03-26T20:53:30.414Z,71.24
2023-03-26T20:55:57.012Z,71.89
2023-03-26T20:58:30.733Z,71.40
2023-03-26T21:01:00.637Z,72.25
2023-03-26T21:03:30.266Z,72.25
2023-03-26T21:06:01.041Z,72.51
2023-03-26T21:08:33.993Z,72.80
2023-03-26T21:11:04.758Z,72.99
2023-03-26T21:13:53.868Z,73.67
2023-03-26T21:16:20.769Z,73.63
2023-03-26T21:18:47.466Z,74.40
2023-03-26T21:21:35.436Z,74.07
2023-03-26T21:24:33.834Z,74.04
2023-03-26T21:27:26.437Z,74.53
2023-03-26T21:29:55.022Z,74.96
2023-03-26T21:32:22.683Z,75.00
2023-03-26T21:34:58.467Z,74.99
2023-03-26T21:37:25.596Z,75.52
2023-03-26T21:39:52.286Z,76.30
2023-03-26T21:42:18.940Z,76.39
2023-03-26T21:44:45.454Z,76.73
2023-03-26T21:47:12.233Z,76.92
2023-03-26T21:49:49.588Z,76.24
2023-03-26T21:52:16.371Z,76.79
2023-03-26T21:54:48.357Z,76.99
2023-03-26T21:57:43.735Z,77.48
2023-03-26T22:00:18.095Z,77.36
2023-03-26T22:03:23.616Z,78.42
2023-03-26T22:06:15.223Z,78.06
2023-03-26T22:08:42.647Z,77.67
2023-03-26T22:11:12.194Z,77.74
2023-03-26T22:13:39.012Z,77.50
2023-03-26T22:16:07.163Z,77.92
2023-03-26T22:18:35.639Z,76.59
2023-03-26T22:21:02.658Z,76.52
2023-03-26T22:23:36.176Z,76.65
2023-03-26T22:26:04.174Z,76.62
2023-03-26T22:28:30.885Z,76.74
2023-03-26T22:30:58.199Z,76.68
2023-03-26T22:33:25.071Z,77.36
2023-03-26T22:35:52.195Z,77.34
2023-03-26T22:38:19.115Z,77.54
2023-03-26T22:40:45.528Z,78.12
2023-03-26T22:43:12.161Z,78.25
2023-03-26T22:45:38.573Z,78.60
2023-03-26T22:48:05.173Z,79.25
2023-03-26T22:50:32.448Z,79.95
2023-03-26T22:52:58.948Z,79.63
2023-03-26T22:55:28.738Z,79.85
2023-03-26T22:57:55.740Z,80.46
2023-03-26T23:00:22.281Z,80.86
2023-03-26T23:02:48.874Z,81.28
2023-03-26T23:05:18.749Z,81.47
2023-03-26T23:07:46.035Z,82.35
2023-03-26T23:10:13.280Z,82.65
2023-03-26T23:12:41.500Z,83.99
2023-03-26T23:15:09.754Z,84.42
2023-03-26T23:17:37.593Z,84.41
2023-03-26T23:20:12.612Z,84.49
2023-03-26T23:22:39.069Z,84.45
2023-03-26T23:25:06.300Z,83.85
2023-03-26T23:27:33.105Z,84.17
2023-03-26T23:29:59.447Z,84.31
2023-03-26T23:32:25.963Z,83.39
2023-03-26T23:34:52.905Z,83.34
2023-03-26T23:37:23.106Z,83.97
2023-03-26T23:39:50.705Z,83.49
2023-03-26T23:42:17.253Z,84.17
2023-03-26T23:44:56.793Z,83.43
2023-03-26T23:47:23.331Z,83.62
2023-03-26T23:49:50.025Z,84.35
2023-03-26T23:52:16.613Z,83.61
2023-03-26T23:54:43.071Z,83.11
2023-03-26T23:57:10.458Z,82.86
2023-03-26T23:59:36.921Z,83.14
